sensor_id;sensor_type;location;lat;lon;timestamp;P1;durP1;ratioP1;P2;durP2;ratioP2
13028;SDS011;6581;42.662;23.402;2024-03-08T00:01:47;9.27;;;4.05;;
13028;SDS011;6581;42.662;23.402;2024-03-08T00:04:13;9.55;;;4.85;;
13028;SDS011;6581;42.662;23.402;2024-03-08T00:06:40;7.85;;;3.50;;
13028;SDS011;6581;42.662;23.402;2024-03-08T00:09:06;9.70;;;4.10;;
13028;SDS011;6581;42.662;23.402;2024-03-08T00:11:33;9.80;;;4.82;;
13028;SDS011;6581;42.662;23.402;2024-03-08T00:14:00;10.98;;;3.83;;
13028;SDS011;6581;42.662;23.402;2024-03-08T00:16:25;9.90;;;4.22;;
13028;SDS011;6581;42.662;23.402;2024-03-08T00:18:51;7.18;;;3.28;;
13028;SDS011;6581;42.662;23.402;2024-03-08T00:21:16;8.05;;;3.53;;
13028;SDS011;6581;42.662;23.402;2024-03-08T00:23:42;6.88;;;3.10;;
13028;SDS011;6581;42.662;23.402;2024-03-08T00:26:07;7.53;;;3.42;;
13028;SDS011;6581;42.662;23.402;2024-03-08T00:28:33;5.50;;;3.08;;
13028;SDS011;6581;42.662;23.402;2024-03-08T00:30:59;7.10;;;3.45;;
13028;SDS011;6581;42.662;23.402;2024-03-08T00:33:25;10.05;;;4.18;;
13028;SDS011;6581;42.662;23.402;2024-03-08T00:35:52;9.20;;;4.13;;
13028;SDS011;6581;42.662;23.402;2024-03-08T00:38:18;6.80;;;2.90;;
13028;SDS011;6581;42.662;23.402;2024-03-08T00:40:44;7.55;;;3.38;;
13028;SDS011;6581;42.662;23.402;2024-03-08T00:43:10;7.85;;;4.20;;
13028;SDS011;6581;42.662;23.402;2024-03-08T00:45:35;7.97;;;3.38;;
13028;SDS011;6581;42.662;23.402;2024-03-08T00:48:02;10.25;;;4.25;;
13028;SDS011;6581;42.662;23.402;2024-03-08T00:50:28;9.48;;;4.18;;
13028;SDS011;6581;42.662;23.402;2024-03-08T00:52:54;10.35;;;5.20;;
13028;SDS011;6581;42.662;23.402;2024-03-08T00:55:19;10.93;;;4.80;;
13028;SDS011;6581;42.662;23.402;2024-03-08T00:57:45;9.07;;;3.80;;
13028;SDS011;6581;42.662;23.402;2024-03-08T01:00:11;9.48;;;4.75;;
13028;SDS011;6581;42.662;23.402;2024-03-08T01:02:40;10.85;;;4.38;;
13028;SDS011;6581;42.662;23.402;2024-03-08T01:05:06;10.55;;;4.07;;
13028;SDS011;6581;42.662;23.402;2024-03-08T01:07:34;8.73;;;3.63;;
13028;SDS011;6581;42.662;23.402;2024-03-08T01:10:00;7.00;;;3.70;;
13028;SDS011;6581;42.662;23.402;2024-03-08T01:12:27;8.38;;;3.72;;
13028;SDS011;6581;42.662;23.402;2024-03-08T01:14:54;8.93;;;3.45;;
13028;SDS011;6581;42.662;23.402;2024-03-08T01:17:20;8.68;;;3.58;;
13028;SDS011;6581;42.662;23.402;2024-03-08T01:19:45;5.22;;;2.53;;
13028;SDS011;6581;42.662;23.402;2024-03-08T01:22:11;4.43;;;1.98;;
13028;SDS011;6581;42.662;23.402;2024-03-08T01:24:36;4.22;;;1.95;;
13028;SDS011;6581;42.662;23.402;2024-03-08T01:27:02;3.08;;;1.23;;
13028;SDS011;6581;42.662;23.402;2024-03-08T01:29:28;4.15;;;1.70;;
13028;SDS011;6581;42.662;23.402;2024-03-08T01:31:55;3.85;;;2.35;;
13028;SDS011;6581;42.662;23.402;2024-03-08T01:34:21;3.80;;;1.50;;
13028;SDS011;6581;42.662;23.402;2024-03-08T01:36:47;4.57;;;2.10;;
13028;SDS011;6581;42.662;23.402;2024-03-08T01:39:13;4.15;;;2.00;;
13028;SDS011;6581;42.662;23.402;2024-03-08T01:41:39;3.95;;;2.00;;
13028;SDS011;6581;42.662;23.402;2024-03-08T01:44:05;3.50;;;1.73;;
13028;SDS011;6581;42.662;23.402;2024-03-08T01:46:34;2.95;;;1.05;;
13028;SDS011;6581;42.662;23.402;2024-03-08T01:49:00;2.53;;;1.05;;
13028;SDS011;6581;42.662;23.402;2024-03-08T01:51:26;3.00;;;1.10;;
13028;SDS011;6581;42.662;23.402;2024-03-08T01:53:53;2.33;;;1.23;;
13028;SDS011;6581;42.662;23.402;2024-03-08T01:56:22;2.65;;;1.23;;
13028;SDS011;6581;42.662;23.402;2024-03-08T01:58:49;2.42;;;1.40;;
13028;SDS011;6581;42.662;23.402;2024-03-08T02:01:14;2.55;;;1.05;;
13028;SDS011;6581;42.662;23.402;2024-03-08T02:03:40;2.90;;;1.55;;
13028;SDS011;6581;42.662;23.402;2024-03-08T02:06:09;3.15;;;1.77;;
13028;SDS011;6581;42.662;23.402;2024-03-08T02:08:36;2.83;;;1.17;;
13028;SDS011;6581;42.662;23.402;2024-03-08T02:11:03;3.35;;;1.55;;
13028;SDS011;6581;42.662;23.402;2024-03-08T02:13:29;3.38;;;1.88;;
13028;SDS011;6581;42.662;23.402;2024-03-08T02:15:59;5.07;;;1.58;;
13028;SDS011;6581;42.662;23.402;2024-03-08T02:18:25;2.75;;;1.10;;
13028;SDS011;6581;42.662;23.402;2024-03-08T02:20:52;3.05;;;1.77;;
13028;SDS011;6581;42.662;23.402;2024-03-08T02:23:22;4.68;;;1.58;;
13028;SDS011;6581;42.662;23.402;2024-03-08T02:25:48;3.00;;;1.50;;
13028;SDS011;6581;42.662;23.402;2024-03-08T02:28:14;3.35;;;1.45;;
13028;SDS011;6581;42.662;23.402;2024-03-08T02:30:40;3.72;;;1.60;;
13028;SDS011;6581;42.662;23.402;2024-03-08T02:33:06;4.22;;;1.63;;
13028;SDS011;6581;42.662;23.402;2024-03-08T02:35:34;3.60;;;1.48;;
13028;SDS011;6581;42.662;23.402;2024-03-08T02:38:00;2.22;;;1.05;;
13028;SDS011;6581;42.662;23.402;2024-03-08T02:40:28;4.65;;;1.33;;
13028;SDS011;6581;42.662;23.402;2024-03-08T02:42:54;3.08;;;1.50;;
13028;SDS011;6581;42.662;23.402;2024-03-08T02:45:19;2.83;;;1.33;;
13028;SDS011;6581;42.662;23.402;2024-03-08T02:47:45;2.58;;;1.40;;
13028;SDS011;6581;42.662;23.402;2024-03-08T02:50:11;5.68;;;1.80;;
13028;SDS011;6581;42.662;23.402;2024-03-08T02:52:41;3.08;;;1.50;;
13028;SDS011;6581;42.662;23.402;2024-03-08T02:55:07;3.22;;;1.70;;
13028;SDS011;6581;42.662;23.402;2024-03-08T02:57:33;3.22;;;1.40;;
13028;SDS011;6581;42.662;23.402;2024-03-08T02:59:58;3.03;;;1.27;;
13028;SDS011;6581;42.662;23.402;2024-03-08T03:02:26;2.53;;;1.40;;
13028;SDS011;6581;42.662;23.402;2024-03-08T03:04:52;2.88;;;1.25;;
13028;SDS011;6581;42.662;23.402;2024-03-08T03:07:18;3.08;;;1.30;;
13028;SDS011;6581;42.662;23.402;2024-03-08T03:09:44;4.00;;;1.38;;
13028;SDS011;6581;42.662;23.402;2024-03-08T03:12:10;3.53;;;1.45;;
13028;SDS011;6581;42.662;23.402;2024-03-08T03:14:35;1.85;;;0.93;;
13028;SDS011;6581;42.662;23.402;2024-03-08T03:17:03;2.45;;;1.13;;
13028;SDS011;6581;42.662;23.402;2024-03-08T03:19:30;1.60;;;0.85;;
13028;SDS011;6581;42.662;23.402;2024-03-08T03:21:55;2.00;;;0.95;;
13028;SDS011;6581;42.662;23.402;2024-03-08T03:24:21;2.28;;;1.08;;
13028;SDS011;6581;42.662;23.402;2024-03-08T03:26:46;1.95;;;0.85;;
13028;SDS011;6581;42.662;23.402;2024-03-08T03:29:13;1.40;;;0.90;;
13028;SDS011;6581;42.662;23.402;2024-03-08T03:31:40;1.20;;;0.63;;
13028;SDS011;6581;42.662;23.402;2024-03-08T03:34:06;2.42;;;1.02;;
13028;SDS011;6581;42.662;23.402;2024-03-08T03:36:33;1.63;;;0.80;;
13028;SDS011;6581;42.662;23.402;2024-03-08T03:39:00;4.15;;;1.15;;
13028;SDS011;6581;42.662;23.402;2024-03-08T03:41:41;1.27;;;0.65;;
13028;SDS011;6581;42.662;23.402;2024-03-08T03:44:07;2.50;;;1.00;;
13028;SDS011;6581;42.662;23.402;2024-03-08T03:46:32;1.67;;;0.77;;
13028;SDS011;6581;42.662;23.402;2024-03-08T03:48:58;3.83;;;1.08;;
13028;SDS011;6581;42.662;23.402;2024-03-08T03:51:24;2.10;;;0.90;;
13028;SDS011;6581;42.662;23.402;2024-03-08T03:53:50;1.98;;;0.80;;
13028;SDS011;6581;42.662;23.402;2024-03-08T03:56:16;2.60;;;0.90;;
13028;SDS011;6581;42.662;23.402;2024-03-08T03:58:41;1.67;;;0.73;;
13028;SDS011;6581;42.662;23.402;2024-03-08T04:01:07;1.20;;;0.70;;
13028;SDS011;6581;42.662;23.402;2024-03-08T04:03:33;1.42;;;0.70;;
13028;SDS011;6581;42.662;23.402;2024-03-08T04:05:58;2.05;;;0.90;;
13028;SDS011;6581;42.662;23.402;2024-03-08T04:08:24;1.50;;;0.73;;
13028;SDS011;6581;42.662;23.402;2024-03-08T04:10:50;1.50;;;0.90;;
13028;SDS011;6581;42.662;23.402;2024-03-08T04:13:16;1.60;;;0.90;;
13028;SDS011;6581;42.662;23.402;2024-03-08T04:15:41;2.00;;;1.00;;
13028;SDS011;6581;42.662;23.402;2024-03-08T04:18:09;2.67;;;1.00;;
13028;SDS011;6581;42.662;23.402;2024-03-08T04:20:35;1.70;;;0.93;;
13028;SDS011;6581;42.662;23.402;2024-03-08T04:23:00;2.30;;;0.77;;
13028;SDS011;6581;42.662;23.402;2024-03-08T04:25:45;1.60;;;0.95;;
13028;SDS011;6581;42.662;23.402;2024-03-08T04:28:11;1.65;;;0.82;;
13028;SDS011;6581;42.662;23.402;2024-03-08T04:30:37;2.10;;;1.05;;
13028;SDS011;6581;42.662;23.402;2024-03-08T04:33:04;3.70;;;1.10;;
13028;SDS011;6581;42.662;23.402;2024-03-08T04:35:30;1.40;;;0.73;;
13028;SDS011;6581;42.662;23.402;2024-03-08T04:37:55;3.25;;;1.33;;
13028;SDS011;6581;42.662;23.402;2024-03-08T04:40:22;2.80;;;1.52;;
13028;SDS011;6581;42.662;23.402;2024-03-08T04:42:48;1.83;;;0.88;;
13028;SDS011;6581;42.662;23.402;2024-03-08T04:45:16;2.13;;;1.15;;
13028;SDS011;6581;42.662;23.402;2024-03-08T04:47:42;1.90;;;0.95;;
13028;SDS011;6581;42.662;23.402;2024-03-08T04:50:07;3.30;;;1.20;;
13028;SDS011;6581;42.662;23.402;2024-03-08T04:52:36;1.90;;;0.95;;
13028;SDS011;6581;42.662;23.402;2024-03-08T04:55:02;2.00;;;1.00;;
13028;SDS011;6581;42.662;23.402;2024-03-08T04:57:30;1.40;;;0.80;;
13028;SDS011;6581;42.662;23.402;2024-03-08T04:59:55;2.30;;;1.10;;
13028;SDS011;6581;42.662;23.402;2024-03-08T05:02:21;4.20;;;2.10;;
13028;SDS011;6581;42.662;23.402;2024-03-08T05:04:47;7.40;;;2.08;;
13028;SDS011;6581;42.662;23.402;2024-03-08T05:07:13;6.72;;;2.22;;
13028;SDS011;6581;42.662;23.402;2024-03-08T05:09:39;3.85;;;1.95;;
13028;SDS011;6581;42.662;23.402;2024-03-08T05:12:06;4.05;;;2.30;;
13028;SDS011;6581;42.662;23.402;2024-03-08T05:14:32;6.20;;;2.38;;
13028;SDS011;6581;42.662;23.402;2024-03-08T05:16:57;5.28;;;2.67;;
13028;SDS011;6581;42.662;23.402;2024-03-08T05:19:23;4.85;;;2.53;;
13028;SDS011;6581;42.662;23.402;2024-03-08T05:21:49;8.02;;;3.00;;
13028;SDS011;6581;42.662;23.402;2024-03-08T05:24:15;5.57;;;2.80;;
13028;SDS011;6581;42.662;23.402;2024-03-08T05:26:41;10.10;;;3.25;;
13028;SDS011;6581;42.662;23.402;2024-03-08T05:29:07;6.88;;;2.72;;
13028;SDS011;6581;42.662;23.402;2024-03-08T05:31:38;8.32;;;3.30;;
13028;SDS011;6581;42.662;23.402;2024-03-08T05:34:10;5.97;;;2.97;;
13028;SDS011;6581;42.662;23.402;2024-03-08T05:36:35;5.90;;;2.72;;
13028;SDS011;6581;42.662;23.402;2024-03-08T05:39:01;6.32;;;3.03;;
13028;SDS011;6581;42.662;23.402;2024-03-08T05:41:26;9.90;;;3.33;;
13028;SDS011;6581;42.662;23.402;2024-03-08T05:43:52;8.00;;;3.22;;
13028;SDS011;6581;42.662;23.402;2024-03-08T05:46:17;9.32;;;3.53;;
13028;SDS011;6581;42.662;23.402;2024-03-08T05:48:43;7.82;;;4.00;;
13028;SDS011;6581;42.662;23.402;2024-03-08T05:51:09;7.82;;;3.30;;
13028;SDS011;6581;42.662;23.402;2024-03-08T05:53:34;7.60;;;4.05;;
13028;SDS011;6581;42.662;23.402;2024-03-08T05:56:00;9.10;;;3.72;;
13028;SDS011;6581;42.662;23.402;2024-03-08T05:58:27;10.80;;;4.10;;
13028;SDS011;6581;42.662;23.402;2024-03-08T06:00:55;9.63;;;4.53;;
13028;SDS011;6581;42.662;23.402;2024-03-08T06:03:21;9.25;;;4.30;;
13028;SDS011;6581;42.662;23.402;2024-03-08T06:05:48;8.63;;;4.55;;
13028;SDS011;6581;42.662;23.402;2024-03-08T06:08:14;8.07;;;5.03;;
13028;SDS011;6581;42.662;23.402;2024-03-08T06:10:40;11.48;;;5.03;;
13028;SDS011;6581;42.662;23.402;2024-03-08T06:13:06;10.15;;;4.78;;
13028;SDS011;6581;42.662;23.402;2024-03-08T06:15:31;11.38;;;4.55;;
13028;SDS011;6581;42.662;23.402;2024-03-08T06:17:57;10.40;;;5.28;;
13028;SDS011;6581;42.662;23.402;2024-03-08T06:20:23;11.25;;;5.63;;
13028;SDS011;6581;42.662;23.402;2024-03-08T06:22:51;10.57;;;4.95;;
13028;SDS011;6581;42.662;23.402;2024-03-08T06:25:17;9.63;;;4.55;;
13028;SDS011;6581;42.662;23.402;2024-03-08T06:27:43;8.98;;;4.85;;
13028;SDS011;6581;42.662;23.402;2024-03-08T06:30:09;10.98;;;5.72;;
13028;SDS011;6581;42.662;23.402;2024-03-08T06:32:36;10.55;;;6.65;;
13028;SDS011;6581;42.662;23.402;2024-03-08T06:35:02;8.68;;;5.00;;
13028;SDS011;6581;42.662;23.402;2024-03-08T06:37:34;9.85;;;4.50;;
13028;SDS011;6581;42.662;23.402;2024-03-08T06:40:00;9.82;;;5.00;;
13028;SDS011;6581;42.662;23.402;2024-03-08T06:42:27;9.05;;;4.60;;
13028;SDS011;6581;42.662;23.402;2024-03-08T06:44:53;9.88;;;4.25;;
13028;SDS011;6581;42.662;23.402;2024-03-08T06:47:21;6.88;;;3.72;;
13028;SDS011;6581;42.662;23.402;2024-03-08T06:49:46;9.00;;;4.65;;
13028;SDS011;6581;42.662;23.402;2024-03-08T06:52:14;9.18;;;4.65;;
13028;SDS011;6581;42.662;23.402;2024-03-08T06:54:40;9.52;;;4.25;;
13028;SDS011;6581;42.662;23.402;2024-03-08T06:57:05;8.02;;;4.05;;
13028;SDS011;6581;42.662;23.402;2024-03-08T06:59:31;6.43;;;3.22;;
13028;SDS011;6581;42.662;23.402;2024-03-08T07:01:57;10.05;;;3.65;;
13028;SDS011;6581;42.662;23.402;2024-03-08T07:04:24;7.15;;;3.90;;
13028;SDS011;6581;42.662;23.402;2024-03-08T07:09:19;6.50;;;3.58;;
13028;SDS011;6581;42.662;23.402;2024-03-08T07:11:45;6.93;;;3.38;;
13028;SDS011;6581;42.662;23.402;2024-03-08T07:14:11;5.70;;;3.03;;
13028;SDS011;6581;42.662;23.402;2024-03-08T07:16:37;5.47;;;2.90;;
13028;SDS011;6581;42.662;23.402;2024-03-08T07:19:04;6.10;;;3.00;;
13028;SDS011;6581;42.662;23.402;2024-03-08T07:21:30;5.95;;;3.20;;
13028;SDS011;6581;42.662;23.402;2024-03-08T07:23:56;6.35;;;2.97;;
13028;SDS011;6581;42.662;23.402;2024-03-08T07:26:24;5.78;;;2.33;;
13028;SDS011;6581;42.662;23.402;2024-03-08T07:28:50;9.05;;;5.18;;
13028;SDS011;6581;42.662;23.402;2024-03-08T07:31:15;3.78;;;2.13;;
13028;SDS011;6581;42.662;23.402;2024-03-08T07:33:59;4.47;;;2.10;;
13028;SDS011;6581;42.662;23.402;2024-03-08T07:36:25;3.35;;;1.88;;
13028;SDS011;6581;42.662;23.402;2024-03-08T07:38:51;3.78;;;1.80;;
13028;SDS011;6581;42.662;23.402;2024-03-08T07:41:16;3.35;;;1.58;;
13028;SDS011;6581;42.662;23.402;2024-03-08T07:43:42;4.53;;;2.15;;
13028;SDS011;6581;42.662;23.402;2024-03-08T07:46:09;2.45;;;1.15;;
13028;SDS011;6581;42.662;23.402;2024-03-08T07:48:35;4.65;;;2.08;;
13028;SDS011;6581;42.662;23.402;2024-03-08T07:51:02;7.65;;;2.72;;
13028;SDS011;6581;42.662;23.402;2024-03-08T07:53:30;5.38;;;2.75;;
13028;SDS011;6581;42.662;23.402;2024-03-08T07:55:56;4.65;;;2.13;;
13028;SDS011;6581;42.662;23.402;2024-03-08T07:58:22;5.05;;;2.50;;
13028;SDS011;6581;42.662;23.402;2024-03-08T08:00:48;4.43;;;2.15;;
13028;SDS011;6581;42.662;23.402;2024-03-08T08:03:14;4.80;;;2.30;;
13028;SDS011;6581;42.662;23.402;2024-03-08T08:05:41;4.50;;;2.30;;
13028;SDS011;6581;42.662;23.402;2024-03-08T08:08:10;7.57;;;2.70;;
13028;SDS011;6581;42.662;23.402;2024-03-08T08:10:36;4.95;;;2.45;;
13028;SDS011;6581;42.662;23.402;2024-03-08T08:13:02;5.47;;;2.70;;
13028;SDS011;6581;42.662;23.402;2024-03-08T08:15:29;5.72;;;2.53;;
13028;SDS011;6581;42.662;23.402;2024-03-08T08:17:55;5.05;;;2.50;;
13028;SDS011;6581;42.662;23.402;2024-03-08T08:20:20;4.15;;;1.95;;
13028;SDS011;6581;42.662;23.402;2024-03-08T08:22:47;4.85;;;2.90;;
13028;SDS011;6581;42.662;23.402;2024-03-08T08:25:13;7.25;;;3.28;;
13028;SDS011;6581;42.662;23.402;2024-03-08T08:27:40;5.00;;;2.63;;
13028;SDS011;6581;42.662;23.402;2024-03-08T08:30:07;4.75;;;2.42;;
13028;SDS011;6581;42.662;23.402;2024-03-08T08:32:37;4.93;;;2.53;;
13028;SDS011;6581;42.662;23.402;2024-03-08T08:35:04;3.65;;;2.05;;
13028;SDS011;6581;42.662;23.402;2024-03-08T08:37:31;5.10;;;2.75;;
13028;SDS011;6581;42.662;23.402;2024-03-08T08:39:57;8.32;;;2.80;;
13028;SDS011;6581;42.662;23.402;2024-03-08T08:42:23;3.70;;;1.98;;
13028;SDS011;6581;42.662;23.402;2024-03-08T08:44:49;4.32;;;2.42;;
13028;SDS011;6581;42.662;23.402;2024-03-08T08:47:15;5.03;;;2.67;;
13028;SDS011;6581;42.662;23.402;2024-03-08T08:49:45;6.43;;;4.03;;
13028;SDS011;6581;42.662;23.402;2024-03-08T08:52:13;6.38;;;3.00;;
13028;SDS011;6581;42.662;23.402;2024-03-08T08:54:38;5.47;;;2.80;;
13028;SDS011;6581;42.662;23.402;2024-03-08T08:57:04;4.40;;;2.03;;
13028;SDS011;6581;42.662;23.402;2024-03-08T08:59:33;4.53;;;2.13;;
13028;SDS011;6581;42.662;23.402;2024-03-08T09:02:01;3.63;;;2.13;;
13028;SDS011;6581;42.662;23.402;2024-03-08T09:04:28;3.80;;;2.00;;
13028;SDS011;6581;42.662;23.402;2024-03-08T09:06:54;4.93;;;2.45;;
13028;SDS011;6581;42.662;23.402;2024-03-08T09:09:20;4.22;;;2.22;;
13028;SDS011;6581;42.662;23.402;2024-03-08T09:11:47;5.70;;;2.30;;
13028;SDS011;6581;42.662;23.402;2024-03-08T09:14:12;4.38;;;2.00;;
13028;SDS011;6581;42.662;23.402;2024-03-08T09:16:39;4.63;;;1.92;;
13028;SDS011;6581;42.662;23.402;2024-03-08T09:19:05;4.43;;;2.28;;
13028;SDS011;6581;42.662;23.402;2024-03-08T09:21:32;2.95;;;1.58;;
13028;SDS011;6581;42.662;23.402;2024-03-08T09:23:58;4.72;;;1.77;;
13028;SDS011;6581;42.662;23.402;2024-03-08T09:26:23;3.58;;;1.85;;
13028;SDS011;6581;42.662;23.402;2024-03-08T09:28:49;3.50;;;1.70;;
13028;SDS011;6581;42.662;23.402;2024-03-08T09:31:14;3.17;;;1.77;;
13028;SDS011;6581;42.662;23.402;2024-03-08T09:33:41;3.78;;;2.10;;
13028;SDS011;6581;42.662;23.402;2024-03-08T09:36:07;3.45;;;1.75;;
13028;SDS011;6581;42.662;23.402;2024-03-08T09:38:33;4.57;;;1.70;;
13028;SDS011;6581;42.662;23.402;2024-03-08T09:41:01;4.20;;;2.03;;
13028;SDS011;6581;42.662;23.402;2024-03-08T09:43:29;2.92;;;1.33;;
13028;SDS011;6581;42.662;23.402;2024-03-08T09:45:55;3.30;;;1.60;;
13028;SDS011;6581;42.662;23.402;2024-03-08T09:48:22;3.88;;;1.77;;
13028;SDS011;6581;42.662;23.402;2024-03-08T09:50:48;3.03;;;1.38;;
13028;SDS011;6581;42.662;23.402;2024-03-08T09:53:14;2.70;;;1.38;;
13028;SDS011;6581;42.662;23.402;2024-03-08T09:55:40;2.78;;;1.42;;
13028;SDS011;6581;42.662;23.402;2024-03-08T10:00:54;2.75;;;1.23;;
13028;SDS011;6581;42.662;23.402;2024-03-08T10:03:23;2.03;;;1.20;;
13028;SDS011;6581;42.662;23.402;2024-03-08T10:05:51;2.17;;;1.13;;
13028;SDS011;6581;42.662;23.402;2024-03-08T10:08:17;4.25;;;1.63;;
13028;SDS011;6581;42.662;23.402;2024-03-08T10:10:42;2.17;;;1.05;;
13028;SDS011;6581;42.662;23.402;2024-03-08T10:13:09;3.88;;;1.40;;
13028;SDS011;6581;42.662;23.402;2024-03-08T10:15:37;7.75;;;2.25;;
13028;SDS011;6581;42.662;23.402;2024-03-08T10:18:05;6.38;;;1.83;;
13028;SDS011;6581;42.662;23.402;2024-03-08T10:20:32;3.08;;;1.30;;
13028;SDS011;6581;42.662;23.402;2024-03-08T10:23:01;2.10;;;1.10;;
13028;SDS011;6581;42.662;23.402;2024-03-08T10:25:30;3.05;;;1.15;;
13028;SDS011;6581;42.662;23.402;2024-03-08T10:27:57;2.20;;;1.15;;
13028;SDS011;6581;42.662;23.402;2024-03-08T10:30:22;2.42;;;1.33;;
13028;SDS011;6581;42.662;23.402;2024-03-08T10:32:49;3.03;;;1.30;;
13028;SDS011;6581;42.662;23.402;2024-03-08T10:35:14;2.65;;;1.17;;
13028;SDS011;6581;42.662;23.402;2024-03-08T10:37:48;2.65;;;1.05;;
13028;SDS011;6581;42.662;23.402;2024-03-08T10:40:23;3.28;;;1.60;;
13028;SDS011;6581;42.662;23.402;2024-03-08T10:42:51;2.83;;;1.45;;
13028;SDS011;6581;42.662;23.402;2024-03-08T10:45:29;2.28;;;1.15;;
13028;SDS011;6581;42.662;23.402;2024-03-08T10:51:05;2.40;;;1.05;;
13028;SDS011;6581;42.662;23.402;2024-03-08T10:53:32;3.22;;;1.05;;
13028;SDS011;6581;42.662;23.402;2024-03-08T10:55:59;2.35;;;1.10;;
13028;SDS011;6581;42.662;23.402;2024-03-08T10:58:25;2.50;;;1.00;;
13028;SDS011;6581;42.662;23.402;2024-03-08T11:00:52;1.45;;;0.88;;
13028;SDS011;6581;42.662;23.402;2024-03-08T11:03:52;1.98;;;1.20;;
13028;SDS011;6581;42.662;23.402;2024-03-08T11:06:22;1.55;;;1.00;;
13028;SDS011;6581;42.662;23.402;2024-03-08T11:08:48;2.40;;;0.90;;
13028;SDS011;6581;42.662;23.402;2024-03-08T11:11:29;1.73;;;0.93;;
13028;SDS011;6581;42.662;23.402;2024-03-08T11:13:57;2.17;;;1.08;;
13028;SDS011;6581;42.662;23.402;2024-03-08T11:18:59;1.80;;;1.10;;
13028;SDS011;6581;42.662;23.402;2024-03-08T11:21:35;1.90;;;0.80;;
13028;SDS011;6581;42.662;23.402;2024-03-08T11:24:14;2.60;;;1.02;;
13028;SDS011;6581;42.662;23.402;2024-03-08T11:26:41;2.30;;;1.00;;
13028;SDS011;6581;42.662;23.402;2024-03-08T11:32:16;1.88;;;1.00;;
13028;SDS011;6581;42.662;23.402;2024-03-08T11:34:47;2.10;;;1.00;;
13028;SDS011;6581;42.662;23.402;2024-03-08T11:37:17;1.55;;;1.00;;
13028;SDS011;6581;42.662;23.402;2024-03-08T11:39:47;2.53;;;1.30;;
13028;SDS011;6581;42.662;23.402;2024-03-08T11:42:14;3.63;;;1.20;;
13028;SDS011;6581;42.662;23.402;2024-03-08T11:44:42;2.20;;;1.30;;
13028;SDS011;6581;42.662;23.402;2024-03-08T11:47:12;2.75;;;1.30;;
13028;SDS011;6581;42.662;23.402;2024-03-08T11:49:39;1.98;;;1.00;;
13028;SDS011;6581;42.662;23.402;2024-03-08T11:52:12;2.40;;;0.82;;
13028;SDS011;6581;42.662;23.402;2024-03-08T11:54:38;2.15;;;1.10;;
13028;SDS011;6581;42.662;23.402;2024-03-08T11:57:05;1.92;;;0.93;;
13028;SDS011;6581;42.662;23.402;2024-03-08T11:59:31;1.73;;;1.00;;
13028;SDS011;6581;42.662;23.402;2024-03-08T12:02:06;1.70;;;0.93;;
13028;SDS011;6581;42.662;23.402;2024-03-08T12:04:35;1.85;;;1.08;;
13028;SDS011;6581;42.662;23.402;2024-03-08T12:07:01;3.63;;;1.30;;
13028;SDS011;6581;42.662;23.402;2024-03-08T12:09:30;2.22;;;0.95;;
13028;SDS011;6581;42.662;23.402;2024-03-08T12:11:58;1.95;;;1.00;;
13028;SDS011;6581;42.662;23.402;2024-03-08T12:14:24;1.80;;;1.00;;
13028;SDS011;6581;42.662;23.402;2024-03-08T12:16:50;2.33;;;0.85;;
13028;SDS011;6581;42.662;23.402;2024-03-08T12:19:17;0.88;;;0.52;;
13028;SDS011;6581;42.662;23.402;2024-03-08T12:21:42;2.28;;;1.10;;
13028;SDS011;6581;42.662;23.402;2024-03-08T12:24:14;3.35;;;1.60;;
13028;SDS011;6581;42.662;23.402;2024-03-08T12:26:44;1.40;;;0.70;;
13028;SDS011;6581;42.662;23.402;2024-03-08T12:29:14;4.22;;;1.35;;
13028;SDS011;6581;42.662;23.402;2024-03-08T12:31:39;1.88;;;0.93;;
13028;SDS011;6581;42.662;23.402;2024-03-08T12:34:07;2.00;;;1.05;;
13028;SDS011;6581;42.662;23.402;2024-03-08T12:36:34;1.92;;;1.10;;
13028;SDS011;6581;42.662;23.402;2024-03-08T12:39:05;2.30;;;1.30;;
13028;SDS011;6581;42.662;23.402;2024-03-08T12:41:39;1.73;;;1.00;;
13028;SDS011;6581;42.662;23.402;2024-03-08T12:44:06;1.85;;;1.10;;
13028;SDS011;6581;42.662;23.402;2024-03-08T12:46:32;2.55;;;1.10;;
13028;SDS011;6581;42.662;23.402;2024-03-08T12:48:58;2.67;;;1.35;;
13028;SDS011;6581;42.662;23.402;2024-03-08T12:51:24;2.40;;;1.10;;
13028;SDS011;6581;42.662;23.402;2024-03-08T12:53:50;2.13;;;1.23;;
13028;SDS011;6581;42.662;23.402;2024-03-08T12:56:28;2.63;;;1.27;;
13028;SDS011;6581;42.662;23.402;2024-03-08T12:58:55;1.55;;;0.70;;
13028;SDS011;6581;42.662;23.402;2024-03-08T13:01:21;1.90;;;1.08;;
13028;SDS011;6581;42.662;23.402;2024-03-08T13:03:47;2.45;;;1.08;;
13028;SDS011;6581;42.662;23.402;2024-03-08T13:06:14;1.80;;;0.90;;
13028;SDS011;6581;42.662;23.402;2024-03-08T13:08:40;1.85;;;0.95;;
13028;SDS011;6581;42.662;23.402;2024-03-08T13:11:07;1.73;;;0.90;;
13028;SDS011;6581;42.662;23.402;2024-03-08T13:13:33;2.35;;;0.80;;
13028;SDS011;6581;42.662;23.402;2024-03-08T13:16:02;1.80;;;1.00;;
13028;SDS011;6581;42.662;23.402;2024-03-08T13:18:28;0.95;;;0.60;;
13028;SDS011;6581;42.662;23.402;2024-03-08T13:20:54;1.48;;;0.73;;
13028;SDS011;6581;42.662;23.402;2024-03-08T13:23:20;1.58;;;0.98;;
13028;SDS011;6581;42.662;23.402;2024-03-08T13:25:45;1.65;;;0.93;;
13028;SDS011;6581;42.662;23.402;2024-03-08T13:28:14;2.08;;;0.88;;
13028;SDS011;6581;42.662;23.402;2024-03-08T13:30:40;1.70;;;1.00;;
13028;SDS011;6581;42.662;23.402;2024-03-08T13:33:06;1.92;;;0.90;;
13028;SDS011;6581;42.662;23.402;2024-03-08T13:35:32;2.15;;;1.20;;
13028;SDS011;6581;42.662;23.402;2024-03-08T13:37:57;2.22;;;1.20;;
13028;SDS011;6581;42.662;23.402;2024-03-08T13:40:23;2.08;;;0.90;;
13028;SDS011;6581;42.662;23.402;2024-03-08T13:42:48;1.27;;;0.80;;
13028;SDS011;6581;42.662;23.402;2024-03-08T13:45:14;1.70;;;1.02;;
13028;SDS011;6581;42.662;23.402;2024-03-08T13:47:46;3.38;;;1.05;;
13028;SDS011;6581;42.662;23.402;2024-03-08T13:50:12;3.53;;;0.98;;
13028;SDS011;6581;42.662;23.402;2024-03-08T13:52:38;2.40;;;0.90;;
13028;SDS011;6581;42.662;23.402;2024-03-08T13:55:04;3.13;;;1.10;;
13028;SDS011;6581;42.662;23.402;2024-03-08T13:57:31;1.70;;;0.82;;
13028;SDS011;6581;42.662;23.402;2024-03-08T13:59:57;1.80;;;1.00;;
13028;SDS011;6581;42.662;23.402;2024-03-08T14:02:23;2.85;;;1.35;;
13028;SDS011;6581;42.662;23.402;2024-03-08T14:04:53;2.40;;;1.20;;
13028;SDS011;6581;42.662;23.402;2024-03-08T14:07:19;2.65;;;1.15;;
13028;SDS011;6581;42.662;23.402;2024-03-08T14:09:45;2.90;;;1.30;;
13028;SDS011;6581;42.662;23.402;2024-03-08T14:12:11;2.28;;;1.30;;
13028;SDS011;6581;42.662;23.402;2024-03-08T14:14:36;2.10;;;1.27;;
13028;SDS011;6581;42.662;23.402;2024-03-08T14:17:02;3.15;;;1.30;;
13028;SDS011;6581;42.662;23.402;2024-03-08T14:19:29;3.58;;;1.10;;
13028;SDS011;6581;42.662;23.402;2024-03-08T14:21:59;3.45;;;1.60;;
13028;SDS011;6581;42.662;23.402;2024-03-08T14:24:24;3.85;;;1.55;;
13028;SDS011;6581;42.662;23.402;2024-03-08T14:26:50;1.90;;;1.00;;
13028;SDS011;6581;42.662;23.402;2024-03-08T14:29:16;3.47;;;1.35;;
13028;SDS011;6581;42.662;23.402;2024-03-08T14:31:43;4.10;;;1.58;;
13028;SDS011;6581;42.662;23.402;2024-03-08T14:34:10;3.63;;;2.20;;
13028;SDS011;6581;42.662;23.402;2024-03-08T14:36:35;2.40;;;1.35;;
13028;SDS011;6581;42.662;23.402;2024-03-08T14:39:01;2.10;;;1.35;;
13028;SDS011;6581;42.662;23.402;2024-03-08T14:41:27;4.40;;;2.05;;
13028;SDS011;6581;42.662;23.402;2024-03-08T14:43:52;4.35;;;1.98;;
13028;SDS011;6581;42.662;23.402;2024-03-08T14:46:18;5.20;;;1.77;;
13028;SDS011;6581;42.662;23.402;2024-03-08T14:48:48;2.83;;;1.55;;
13028;SDS011;6581;42.662;23.402;2024-03-08T14:51:17;3.63;;;1.48;;
13028;SDS011;6581;42.662;23.402;2024-03-08T14:53:45;1.70;;;1.02;;
13028;SDS011;6581;42.662;23.402;2024-03-08T14:56:13;1.85;;;1.13;;
13028;SDS011;6581;42.662;23.402;2024-03-08T14:58:45;1.75;;;1.10;;
13028;SDS011;6581;42.662;23.402;2024-03-08T15:01:14;1.60;;;0.90;;